sensor_id;sensor_type;location;lat;lon;timestamp;pressure;altitude;pressure_sealevel;temperature;humidity
1207;BME280;593;53.184;8.216;2023-04-06T00:01:16;101584.31;;;6.49;80.72
1207;BME280;593;53.184;8.216;2023-04-06T00:03:41;101579.03;;;6.42;80.71
1207;BME280;593;53.184;8.216;2023-04-06T00:06:07;101578.56;;;6.45;81.24
1207;BME280;593;53.184;8.216;2023-04-06T00:08:32;101581.28;;;6.45;82.05
1207;BME280;593;53.184;8.216;2023-04-06T00:10:58;101563.28;;;6.39;81.64
1207;BME280;593;53.184;8.216;2023-04-06T00:13:23;101567.97;;;6.44;81.93
1207;BME280;593;53.184;8.216;2023-04-06T00:15:48;101562.25;;;6.40;82.55
1207;BME280;593;53.184;8.216;2023-04-06T00:18:14;101561.66;;;6.38;82.38
1207;BME280;593;53.184;8.216;2023-04-06T00:20:39;101565.41;;;6.37;82.57
1207;BME280;593;53.184;8.216;2023-04-06T00:23:05;101555.06;;;6.34;82.82
1207;BME280;593;53.184;8.216;2023-04-06T00:25:30;101556.91;;;6.34;82.84
1207;BME280;593;53.184;8.216;2023-04-06T00:27:56;101561.53;;;6.33;83.97
1207;BME280;593;53.184;8.216;2023-04-06T00:30:21;101551.75;;;6.32;83.52
1207;BME280;593;53.184;8.216;2023-04-06T00:32:46;101558.47;;;6.30;84.14
1207;BME280;593;53.184;8.216;2023-04-06T00:35:12;101566.56;;;6.30;83.86
1207;BME280;593;53.184;8.216;2023-04-06T00:37:37;101553.28;;;6.28;84.51
1207;BME280;593;53.184;8.216;2023-04-06T00:40:03;101549.97;;;6.26;84.14
1207;BME280;593;53.184;8.216;2023-04-06T00:42:28;101524.81;;;6.14;84.04
1207;BME280;593;53.184;8.216;2023-04-06T00:44:56;101545.88;;;6.24;84.19
1207;BME280;593;53.184;8.216;2023-04-06T00:47:22;101549.25;;;6.19;84.19
1207;BME280;593;53.184;8.216;2023-04-06T00:49:48;101538.47;;;6.19;85.08
1207;BME280;593;53.184;8.216;2023-04-06T00:52:14;101545.97;;;6.17;84.93
1207;BME280;593;53.184;8.216;2023-04-06T00:54:40;101537.28;;;6.15;85.07
1207;BME280;593;53.184;8.216;2023-04-06T00:57:05;101533.38;;;6.11;84.87
1207;BME280;593;53.184;8.216;2023-04-06T00:59:31;101527.19;;;6.11;84.79
1207;BME280;593;53.184;8.216;2023-04-06T01:01:56;101507.53;;;5.92;84.78
1207;BME280;593;53.184;8.216;2023-04-06T01:04:21;101534.09;;;6.07;84.47
1207;BME280;593;53.184;8.216;2023-04-06T01:06:50;101526.69;;;6.02;84.80
1207;BME280;593;53.184;8.216;2023-04-06T01:09:19;101525.06;;;6.01;84.34
1207;BME280;593;53.184;8.216;2023-04-06T01:11:44;101530.91;;;5.98;84.20
1207;BME280;593;53.184;8.216;2023-04-06T01:14:10;101524.94;;;5.96;84.20
1207;BME280;593;53.184;8.216;2023-04-06T01:16:36;101522.69;;;5.93;84.35
1207;BME280;593;53.184;8.216;2023-04-06T01:19:07;101515.88;;;5.91;85.10
1207;BME280;593;53.184;8.216;2023-04-06T01:21:34;101502.06;;;5.80;84.53
1207;BME280;593;53.184;8.216;2023-04-06T01:24:01;101516.56;;;5.86;85.80
1207;BME280;593;53.184;8.216;2023-04-06T01:26:26;101522.19;;;5.85;85.40
1207;BME280;593;53.184;8.216;2023-04-06T01:28:52;101511.78;;;5.81;85.78
1207;BME280;593;53.184;8.216;2023-04-06T01:31:17;101513.09;;;5.79;85.23
1207;BME280;593;53.184;8.216;2023-04-06T01:33:46;101512.28;;;5.78;85.59
1207;BME280;593;53.184;8.216;2023-04-06T01:36:12;101507.56;;;5.74;85.58
1207;BME280;593;53.184;8.216;2023-04-06T01:38:37;101497.69;;;5.68;85.84
1207;BME280;593;53.184;8.216;2023-04-06T01:41:02;101492.75;;;5.65;86.07
1207;BME280;593;53.184;8.216;2023-04-06T01:43:28;101501.44;;;5.67;86.13
1207;BME280;593;53.184;8.216;2023-04-06T01:45:53;101495.44;;;5.65;86.12
1207;BME280;593;53.184;8.216;2023-04-06T01:48:18;101500.25;;;5.63;85.89
1207;BME280;593;53.184;8.216;2023-04-06T01:50:44;101496.97;;;5.61;86.37
1207;BME280;593;53.184;8.216;2023-04-06T01:53:09;101494.94;;;5.56;85.79
1207;BME280;593;53.184;8.216;2023-04-06T01:55:35;101484.38;;;5.55;86.28
1207;BME280;593;53.184;8.216;2023-04-06T01:58:00;101489.19;;;5.53;85.67
1207;BME280;593;53.184;8.216;2023-04-06T02:00:25;101477.81;;;5.51;86.03
1207;BME280;593;53.184;8.216;2023-04-06T02:02:51;101480.97;;;5.48;85.97
1207;BME280;593;53.184;8.216;2023-04-06T02:05:16;101477.66;;;5.46;86.36
1207;BME280;593;53.184;8.216;2023-04-06T02:07:41;101476.25;;;5.43;86.11
1207;BME280;593;53.184;8.216;2023-04-06T02:10:13;101466.75;;;5.41;86.41
1207;BME280;593;53.184;8.216;2023-04-06T02:12:39;101462.38;;;5.40;86.80
1207;BME280;593;53.184;8.216;2023-04-06T02:15:04;101454.16;;;5.35;86.87
1207;BME280;593;53.184;8.216;2023-04-06T02:17:30;101470.72;;;5.38;87.29
1207;BME280;593;53.184;8.216;2023-04-06T02:19:55;101462.00;;;5.36;87.40
1207;BME280;593;53.184;8.216;2023-04-06T02:22:21;101455.81;;;5.36;87.61
1207;BME280;593;53.184;8.216;2023-04-06T02:24:46;101450.63;;;5.34;87.79
1207;BME280;593;53.184;8.216;2023-04-06T02:27:13;101461.66;;;5.33;87.86
1207;BME280;593;53.184;8.216;2023-04-06T02:29:39;101454.59;;;5.32;88.46
1207;BME280;593;53.184;8.216;2023-04-06T02:32:04;101454.59;;;5.32;88.41
1207;BME280;593;53.184;8.216;2023-04-06T02:34:30;101457.91;;;5.34;88.31
1207;BME280;593;53.184;8.216;2023-04-06T02:36:55;101451.09;;;5.31;88.47
1207;BME280;593;53.184;8.216;2023-04-06T02:39:21;101449.31;;;5.25;88.76
1207;BME280;593;53.184;8.216;2023-04-06T02:41:46;101457.16;;;5.27;88.93
1207;BME280;593;53.184;8.216;2023-04-06T02:44:11;101434.13;;;5.12;88.82
1207;BME280;593;53.184;8.216;2023-04-06T02:46:36;101453.88;;;5.25;88.48
1207;BME280;593;53.184;8.216;2023-04-06T02:49:02;101450.34;;;5.24;89.09
1207;BME280;593;53.184;8.216;2023-04-06T02:51:27;101445.06;;;5.17;88.88
1207;BME280;593;53.184;8.216;2023-04-06T02:53:53;101442.38;;;5.17;89.38
1207;BME280;593;53.184;8.216;2023-04-06T02:56:18;101442.50;;;5.23;89.20
1207;BME280;593;53.184;8.216;2023-04-06T02:58:46;101447.75;;;5.17;89.10
1207;BME280;593;53.184;8.216;2023-04-06T03:01:11;101448.09;;;5.21;89.05
1207;BME280;593;53.184;8.216;2023-04-06T03:03:37;101438.59;;;5.18;89.22
1207;BME280;593;53.184;8.216;2023-04-06T03:06:02;101446.69;;;5.18;89.05
1207;BME280;593;53.184;8.216;2023-04-06T03:08:28;101441.53;;;5.17;88.93
1207;BME280;593;53.184;8.216;2023-04-06T03:10:53;101446.94;;;5.17;89.16
1207;BME280;593;53.184;8.216;2023-04-06T03:13:19;101441.97;;;5.14;89.38
1207;BME280;593;53.184;8.216;2023-04-06T03:15:44;101440.56;;;5.11;89.00
1207;BME280;593;53.184;8.216;2023-04-06T03:18:09;101445.16;;;5.11;88.82
1207;BME280;593;53.184;8.216;2023-04-06T03:20:35;101430.41;;;4.95;89.10
1207;BME280;593;53.184;8.216;2023-04-06T03:23:00;101453.09;;;5.06;88.90
1207;BME280;593;53.184;8.216;2023-04-06T03:25:26;101451.69;;;5.03;89.05
1207;BME280;593;53.184;8.216;2023-04-06T03:27:51;101449.78;;;5.04;88.79
1207;BME280;593;53.184;8.216;2023-04-06T03:30:17;101450.03;;;5.02;88.84
1207;BME280;593;53.184;8.216;2023-04-06T03:32:43;101438.66;;;5.00;89.19
1207;BME280;593;53.184;8.216;2023-04-06T03:35:09;101445.06;;;4.99;88.51
1207;BME280;593;53.184;8.216;2023-04-06T03:37:34;101441.19;;;4.95;88.79
1207;BME280;593;53.184;8.216;2023-04-06T03:39:59;101434.59;;;4.91;88.91
1207;BME280;593;53.184;8.216;2023-04-06T03:42:25;101431.69;;;4.93;88.63
1207;BME280;593;53.184;8.216;2023-04-06T03:44:52;101435.66;;;4.90;88.29
1207;BME280;593;53.184;8.216;2023-04-06T03:47:17;101432.13;;;4.90;88.50
1207;BME280;593;53.184;8.216;2023-04-06T03:49:42;101433.66;;;4.86;88.60
1207;BME280;593;53.184;8.216;2023-04-06T03:52:08;101439.25;;;4.84;88.30
1207;BME280;593;53.184;8.216;2023-04-06T03:54:33;101434.09;;;4.83;88.04
1207;BME280;593;53.184;8.216;2023-04-06T03:56:58;101437.00;;;4.81;88.54
1207;BME280;593;53.184;8.216;2023-04-06T03:59:25;101439.09;;;4.79;88.15
1207;BME280;593;53.184;8.216;2023-04-06T04:01:50;101442.63;;;4.80;88.35
1207;BME280;593;53.184;8.216;2023-04-06T04:04:16;101442.03;;;4.78;88.16
1207;BME280;593;53.184;8.216;2023-04-06T04:06:41;101440.38;;;4.77;88.22
1207;BME280;593;53.184;8.216;2023-04-06T04:09:07;101437.09;;;4.75;88.00
1207;BME280;593;53.184;8.216;2023-04-06T04:11:32;101441.06;;;4.72;87.76
1207;BME280;593;53.184;8.216;2023-04-06T04:13:57;101439.88;;;4.68;88.35
1207;BME280;593;53.184;8.216;2023-04-06T04:16:23;101411.69;;;4.46;88.38
1207;BME280;593;53.184;8.216;2023-04-06T04:18:48;101441.34;;;4.64;88.18
1207;BME280;593;53.184;8.216;2023-04-06T04:21:14;101436.78;;;4.65;88.28
1207;BME280;593;53.184;8.216;2023-04-06T04:23:39;101433.94;;;4.60;87.95
1207;BME280;593;53.184;8.216;2023-04-06T04:26:04;101430.41;;;4.59;87.69
1207;BME280;593;53.184;8.216;2023-04-06T04:28:30;101427.38;;;4.56;87.67
1207;BME280;593;53.184;8.216;2023-04-06T04:30:56;101435.22;;;4.57;87.70
1207;BME280;593;53.184;8.216;2023-04-06T04:33:21;101444.56;;;4.54;87.30
1207;BME280;593;53.184;8.216;2023-04-06T04:35:46;101423.47;;;4.51;87.52
1207;BME280;593;53.184;8.216;2023-04-06T04:38:12;101429.09;;;4.50;87.59
1207;BME280;593;53.184;8.216;2023-04-06T04:40:37;101424.72;;;4.49;87.67
1207;BME280;593;53.184;8.216;2023-04-06T04:43:03;101433.88;;;4.48;87.69
1207;BME280;593;53.184;8.216;2023-04-06T04:45:28;101428.69;;;4.46;87.40
1207;BME280;593;53.184;8.216;2023-04-06T04:47:53;101428.69;;;4.46;87.24
1207;BME280;593;53.184;8.216;2023-04-06T04:50:19;101428.34;;;4.43;87.25
1207;BME280;593;53.184;8.216;2023-04-06T04:52:44;101427.94;;;4.39;87.30
1207;BME280;593;53.184;8.216;2023-04-06T04:55:10;101429.81;;;4.39;87.04
1207;BME280;593;53.184;8.216;2023-04-06T04:57:35;101425.34;;;4.33;87.16
1207;BME280;593;53.184;8.216;2023-04-06T05:00:00;101428.03;;;4.33;87.07
1207;BME280;593;53.184;8.216;2023-04-06T05:02:26;101392.84;;;4.10;87.20
1207;BME280;593;53.184;8.216;2023-04-06T05:04:52;101427.19;;;4.32;86.72
1207;BME280;593;53.184;8.216;2023-04-06T05:07:17;101428.22;;;4.31;86.78
1207;BME280;593;53.184;8.216;2023-04-06T05:09:44;101428.47;;;4.30;86.44
1207;BME280;593;53.184;8.216;2023-04-06T05:12:09;101425.16;;;4.28;86.47
1207;BME280;593;53.184;8.216;2023-04-06T05:14:35;101426.44;;;4.25;86.51
1207;BME280;593;53.184;8.216;2023-04-06T05:17:01;101422.09;;;4.24;85.69
1207;BME280;593;53.184;8.216;2023-04-06T05:19:26;101428.31;;;4.25;85.65
1207;BME280;593;53.184;8.216;2023-04-06T05:21:51;101426.03;;;4.22;85.55
1207;BME280;593;53.184;8.216;2023-04-06T05:24:17;101428.53;;;4.23;85.26
1207;BME280;593;53.184;8.216;2023-04-06T05:26:42;101438.25;;;4.24;85.09
1207;BME280;593;53.184;8.216;2023-04-06T05:29:08;101425.59;;;4.25;84.65
1207;BME280;593;53.184;8.216;2023-04-06T05:31:33;101426.03;;;4.22;84.52
1207;BME280;593;53.184;8.216;2023-04-06T05:33:58;101427.72;;;4.23;84.27
1207;BME280;593;53.184;8.216;2023-04-06T05:36:24;101416.78;;;4.18;84.18
1207;BME280;593;53.184;8.216;2023-04-06T05:38:50;101426.44;;;4.25;83.54
1207;BME280;593;53.184;8.216;2023-04-06T05:41:17;101425.59;;;4.25;82.99
1207;BME280;593;53.184;8.216;2023-04-06T05:43:43;101425.16;;;4.28;82.43
1207;BME280;593;53.184;8.216;2023-04-06T05:46:08;101426.22;;;4.27;81.88
1207;BME280;593;53.184;8.216;2023-04-06T05:48:33;101423.78;;;4.19;82.12
1207;BME280;593;53.184;8.216;2023-04-06T05:50:59;101435.34;;;4.26;81.70
1207;BME280;593;53.184;8.216;2023-04-06T05:53:25;101429.72;;;4.27;81.35
1207;BME280;593;53.184;8.216;2023-04-06T05:55:51;101426.22;;;4.27;81.34
1207;BME280;593;53.184;8.216;2023-04-06T05:58:17;101430.91;;;4.31;80.97
1207;BME280;593;53.184;8.216;2023-04-06T06:00:42;101420.53;;;4.35;80.71
1207;BME280;593;53.184;8.216;2023-04-06T06:03:08;101412.66;;;4.33;80.99
1207;BME280;593;53.184;8.216;2023-04-06T06:05:34;101423.53;;;4.45;80.12
1207;BME280;593;53.184;8.216;2023-04-06T06:07:59;101419.56;;;4.47;80.10
1207;BME280;593;53.184;8.216;2023-04-06T06:10:27;101422.19;;;4.54;79.59
1207;BME280;593;53.184;8.216;2023-04-06T06:12:53;101417.78;;;4.60;79.25
1207;BME280;593;53.184;8.216;2023-04-06T06:15:18;101411.72;;;4.64;78.83
1207;BME280;593;53.184;8.216;2023-04-06T06:17:43;101422.94;;;4.79;77.54
1207;BME280;593;53.184;8.216;2023-04-06T06:20:09;101410.69;;;4.83;77.62
1207;BME280;593;53.184;8.216;2023-04-06T06:22:34;101406.59;;;4.92;76.41
1207;BME280;593;53.184;8.216;2023-04-06T06:25:00;101406.59;;;4.92;76.53
1207;BME280;593;53.184;8.216;2023-04-06T06:27:25;101411.44;;;5.02;75.70
1207;BME280;593;53.184;8.216;2023-04-06T06:29:51;101416.09;;;5.13;75.10
1207;BME280;593;53.184;8.216;2023-04-06T06:32:17;101401.91;;;5.17;75.00
1207;BME280;593;53.184;8.216;2023-04-06T06:34:42;101398.22;;;5.30;74.84
1207;BME280;593;53.184;8.216;2023-04-06T06:37:08;101411.50;;;5.43;74.11
1207;BME280;593;53.184;8.216;2023-04-06T06:39:33;101412.00;;;5.52;73.58
1207;BME280;593;53.184;8.216;2023-04-06T06:41:58;101408.13;;;5.59;73.80
1207;BME280;593;53.184;8.216;2023-04-06T06:44:26;101407.81;;;5.67;71.75
1207;BME280;593;53.184;8.216;2023-04-06T06:46:52;101412.63;;;5.77;71.34
1207;BME280;593;53.184;8.216;2023-04-06T06:49:17;101410.88;;;5.82;70.40
1207;BME280;593;53.184;8.216;2023-04-06T06:51:43;101417.84;;;5.90;71.55
1207;BME280;593;53.184;8.216;2023-04-06T06:54:09;101411.28;;;5.98;71.09
1207;BME280;593;53.184;8.216;2023-04-06T06:56:34;101411.16;;;6.04;70.33
1207;BME280;593;53.184;8.216;2023-04-06T06:59:01;101407.09;;;6.13;69.52
1207;BME280;593;53.184;8.216;2023-04-06T07:01:26;101404.50;;;6.18;69.20
1207;BME280;593;53.184;8.216;2023-04-06T07:03:51;101406.81;;;6.26;69.33
1207;BME280;593;53.184;8.216;2023-04-06T07:06:17;101409.16;;;6.34;68.96
1207;BME280;593;53.184;8.216;2023-04-06T07:08:42;101402.84;;;6.40;67.04
1207;BME280;593;53.184;8.216;2023-04-06T07:11:07;101404.47;;;6.41;67.84
1207;BME280;593;53.184;8.216;2023-04-06T07:13:33;101395.88;;;6.44;67.49
1207;BME280;593;53.184;8.216;2023-04-06T07:15:58;101398.59;;;6.56;67.58
1207;BME280;593;53.184;8.216;2023-04-06T07:18:23;101401.16;;;6.63;67.16
1207;BME280;593;53.184;8.216;2023-04-06T07:20:49;101396.31;;;6.65;66.14
1207;BME280;593;53.184;8.216;2023-04-06T07:23:14;101390.91;;;6.65;65.43
1207;BME280;593;53.184;8.216;2023-04-06T07:25:40;101397.25;;;6.70;66.09
1207;BME280;593;53.184;8.216;2023-04-06T07:28:05;101399.03;;;6.76;65.59
1207;BME280;593;53.184;8.216;2023-04-06T07:30:31;101402.63;;;6.82;66.36
1207;BME280;593;53.184;8.216;2023-04-06T07:32:57;101391.69;;;6.88;65.83
1207;BME280;593;53.184;8.216;2023-04-06T07:35:24;101389.66;;;6.95;66.56
1207;BME280;593;53.184;8.216;2023-04-06T07:37:51;101392.69;;;6.99;66.44
1207;BME280;593;53.184;8.216;2023-04-06T07:40:16;101389.28;;;7.03;66.53
1207;BME280;593;53.184;8.216;2023-04-06T07:42:41;101379.25;;;7.04;66.92
1207;BME280;593;53.184;8.216;2023-04-06T07:45:07;101387.00;;;7.12;66.38
1207;BME280;593;53.184;8.216;2023-04-06T07:47:33;101386.72;;;7.25;64.85
1207;BME280;593;53.184;8.216;2023-04-06T07:49:58;101364.69;;;7.05;65.23
1207;BME280;593;53.184;8.216;2023-04-06T07:52:24;101381.31;;;7.25;65.40
1207;BME280;593;53.184;8.216;2023-04-06T07:54:49;101376.06;;;7.35;64.10
1207;BME280;593;53.184;8.216;2023-04-06T07:57:15;101380.19;;;7.38;63.61
1207;BME280;593;53.184;8.216;2023-04-06T07:59:40;101371.81;;;7.39;63.51
1207;BME280;593;53.184;8.216;2023-04-06T08:02:06;101367.56;;;7.43;64.00
1207;BME280;593;53.184;8.216;2023-04-06T08:04:31;101366.00;;;7.47;63.47
1207;BME280;593;53.184;8.216;2023-04-06T08:06:56;101378.47;;;7.48;63.91
1207;BME280;593;53.184;8.216;2023-04-06T08:09:22;101368.31;;;7.55;61.90
1207;BME280;593;53.184;8.216;2023-04-06T08:11:47;101367.09;;;7.63;61.78
1207;BME280;593;53.184;8.216;2023-04-06T08:14:14;101364.47;;;7.68;62.04
1207;BME280;593;53.184;8.216;2023-04-06T08:16:40;101371.53;;;7.69;61.65
1207;BME280;593;53.184;8.216;2023-04-06T08:19:06;101363.22;;;7.75;60.56
1207;BME280;593;53.184;8.216;2023-04-06T08:21:37;101366.25;;;7.79;62.10
1207;BME280;593;53.184;8.216;2023-04-06T08:24:02;101367.41;;;7.83;62.45
1207;BME280;593;53.184;8.216;2023-04-06T08:26:28;101362.84;;;7.84;61.29
1207;BME280;593;53.184;8.216;2023-04-06T08:28:53;101365.34;;;7.90;60.17
1207;BME280;593;53.184;8.216;2023-04-06T08:31:19;101364.38;;;7.96;60.88
1207;BME280;593;53.184;8.216;2023-04-06T08:33:44;101363.63;;;8.01;61.41
1207;BME280;593;53.184;8.216;2023-04-06T08:36:11;101365.94;;;8.09;61.04
1207;BME280;593;53.184;8.216;2023-04-06T08:38:37;101353.44;;;8.08;60.70
1207;BME280;593;53.184;8.216;2023-04-06T08:41:13;101366.56;;;8.16;59.64
1207;BME280;593;53.184;8.216;2023-04-06T08:43:46;101361.16;;;8.16;60.37
1207;BME280;593;53.184;8.216;2023-04-06T08:46:13;101349.28;;;8.22;59.28
1207;BME280;593;53.184;8.216;2023-04-06T08:48:40;101351.69;;;8.18;59.61
1207;BME280;593;53.184;8.216;2023-04-06T08:51:06;101360.22;;;8.27;60.31
1207;BME280;593;53.184;8.216;2023-04-06T08:53:31;101361.69;;;8.34;58.79
1207;BME280;593;53.184;8.216;2023-04-06T08:55:58;101354.78;;;8.44;58.12
1207;BME280;593;53.184;8.216;2023-04-06T08:58:25;101354.03;;;8.48;58.10
1207;BME280;593;53.184;8.216;2023-04-06T09:00:53;101350.06;;;8.56;58.19
1207;BME280;593;53.184;8.216;2023-04-06T09:03:19;101358.00;;;8.62;55.85
1207;BME280;593;53.184;8.216;2023-04-06T09:05:46;101356.94;;;8.63;56.63
1207;BME280;593;53.184;8.216;2023-04-06T09:08:12;101346.38;;;8.67;56.51
1207;BME280;593;53.184;8.216;2023-04-06T09:10:41;101350.25;;;8.71;56.83
1207;BME280;593;53.184;8.216;2023-04-06T09:13:07;101352.53;;;8.79;56.52
1207;BME280;593;53.184;8.216;2023-04-06T09:15:33;101337.03;;;8.79;57.34
1207;BME280;593;53.184;8.216;2023-04-06T09:17:58;101346.44;;;8.93;59.00
1207;BME280;593;53.184;8.216;2023-04-06T09:20:25;101350.53;;;8.96;58.68
1207;BME280;593;53.184;8.216;2023-04-06T09:22:52;101353.59;;;9.04;58.24
1207;BME280;593;53.184;8.216;2023-04-06T09:25:19;101353.22;;;9.18;57.57
1207;BME280;593;53.184;8.216;2023-04-06T09:27:46;101346.22;;;9.22;56.35
1207;BME280;593;53.184;8.216;2023-04-06T09:30:12;101346.00;;;9.28;55.77
1207;BME280;593;53.184;8.216;2023-04-06T09:32:49;101356.38;;;9.36;56.20
1207;BME280;593;53.184;8.216;2023-04-06T09:35:15;101351.00;;;9.41;54.92
1207;BME280;593;53.184;8.216;2023-04-06T09:37:41;101332.00;;;9.41;54.89
1207;BME280;593;53.184;8.216;2023-04-06T09:40:07;101341.56;;;9.49;54.18
1207;BME280;593;53.184;8.216;2023-04-06T09:42:33;101343.78;;;9.57;54.03
1207;BME280;593;53.184;8.216;2023-04-06T09:45:00;101338.94;;;9.59;53.52
1207;BME280;593;53.184;8.216;2023-04-06T09:47:26;101334.63;;;9.63;54.71
1207;BME280;593;53.184;8.216;2023-04-06T09:49:56;101342.28;;;9.71;53.88
1207;BME280;593;53.184;8.216;2023-04-06T09:52:25;101326.78;;;9.66;53.33
1207;BME280;593;53.184;8.216;2023-04-06T09:54:52;101335.00;;;9.77;52.38
1207;BME280;593;53.184;8.216;2023-04-06T10:00:07;101324.78;;;9.89;53.51
1207;BME280;593;53.184;8.216;2023-04-06T10:02:56;101328.91;;;9.96;53.93
1207;BME280;593;53.184;8.216;2023-04-06T10:08:10;101327.63;;;10.09;51.80
1207;BME280;593;53.184;8.216;2023-04-06T10:10:37;101324.13;;;10.13;51.71
1207;BME280;593;53.184;8.216;2023-04-06T10:13:03;101321.72;;;10.17;52.89
1207;BME280;593;53.184;8.216;2023-04-06T10:15:29;101319.59;;;10.24;53.65
1207;BME280;593;53.184;8.216;2023-04-06T10:17:56;101315.50;;;10.26;53.02
1207;BME280;593;53.184;8.216;2023-04-06T10:20:28;101324.78;;;10.36;51.83
1207;BME280;593;53.184;8.216;2023-04-06T10:23:13;101313.13;;;10.40;52.84
1207;BME280;593;53.184;8.216;2023-04-06T10:25:59;101320.78;;;10.48;50.66
1207;BME280;593;53.184;8.216;2023-04-06T10:28:25;101316.19;;;10.54;50.12
1207;BME280;593;53.184;8.216;2023-04-06T10:30:59;101304.78;;;10.62;50.09
1207;BME280;593;53.184;8.216;2023-04-06T10:33:25;101333.38;;;10.69;49.08
1207;BME280;593;53.184;8.216;2023-04-06T10:35:50;101311.63;;;10.69;48.96
1207;BME280;593;53.184;8.216;2023-04-06T10:38:16;101313.56;;;10.79;48.54
1207;BME280;593;53.184;8.216;2023-04-06T10:40:46;101301.56;;;10.80;48.25
1207;BME280;593;53.184;8.216;2023-04-06T10:43:21;101306.78;;;10.86;49.50
1207;BME280;593;53.184;8.216;2023-04-06T10:45:57;101299.41;;;10.82;49.90
1207;BME280;593;53.184;8.216;2023-04-06T10:48:24;101306.25;;;10.94;47.86
1207;BME280;593;53.184;8.216;2023-04-06T10:50:53;101307.63;;;10.97;48.41
1207;BME280;593;53.184;8.216;2023-04-06T10:53:23;101310.63;;;11.06;48.82
1207;BME280;593;53.184;8.216;2023-04-06T10:55:53;101303.00;;;11.13;49.19
1207;BME280;593;53.184;8.216;2023-04-06T10:58:19;101302.47;;;11.16;49.56
1207;BME280;593;53.184;8.216;2023-04-06T11:00:49;101301.63;;;11.15;49.62
1207;BME280;593;53.184;8.216;2023-04-06T11:03:15;101297.84;;;11.16;47.59
1207;BME280;593;53.184;8.216;2023-04-06T11:05:44;101286.41;;;11.19;46.31
1207;BME280;593;53.184;8.216;2023-04-06T11:08:10;101296.75;;;11.27;45.77
1207;BME280;593;53.184;8.216;2023-04-06T11:10:36;101297.31;;;11.34;45.97
1207;BME280;593;53.184;8.216;2023-04-06T11:13:01;101295.97;;;11.37;47.03
1207;BME280;593;53.184;8.216;2023-04-06T11:15:33;101286.97;;;11.41;46.40
1207;BME280;593;53.184;8.216;2023-04-06T11:18:03;101286.44;;;11.49;45.57
1207;BME280;593;53.184;8.216;2023-04-06T11:20:29;101291.88;;;11.54;45.73
1207;BME280;593;53.184;8.216;2023-04-06T11:22:54;101288.59;;;11.52;46.04
1207;BME280;593;53.184;8.216;2023-04-06T11:25:20;101289.16;;;11.59;47.30
1207;BME280;593;53.184;8.216;2023-04-06T11:27:46;101270.88;;;11.55;47.60
1207;BME280;593;53.184;8.216;2023-04-06T11:30:13;101269.78;;;11.66;45.93
1207;BME280;593;53.184;8.216;2023-04-06T11:32:41;101255.34;;;11.60;46.22
1207;BME280;593;53.184;8.216;2023-04-06T11:35:10;101277.69;;;11.73;46.66
1207;BME280;593;53.184;8.216;2023-04-06T11:37:36;101273.88;;;11.79;46.69
1207;BME280;593;53.184;8.216;2023-04-06T11:40:01;101269.50;;;11.83;46.86
1207;BME280;593;53.184;8.216;2023-04-06T11:42:29;101267.88;;;11.92;44.40
1207;BME280;593;53.184;8.216;2023-04-06T11:44:58;101255.88;;;11.88;46.55
1207;BME280;593;53.184;8.216;2023-04-06T11:47:43;101256.66;;;11.98;48.14
1207;BME280;593;53.184;8.216;2023-04-06T11:50:13;101261.56;;;12.06;47.72
1207;BME280;593;53.184;8.216;2023-04-06T11:52:40;101254.19;;;12.12;45.33
1207;BME280;593;53.184;8.216;2023-04-06T11:55:15;101252.22;;;12.17;45.66
1207;BME280;593;53.184;8.216;2023-04-06T11:57:41;101259.59;;;12.22;47.14
1207;BME280;593;53.184;8.216;2023-04-06T12:00:08;101266.66;;;12.28;45.68
1207;BME280;593;53.184;8.216;2023-04-06T12:02:35;101262.53;;;12.31;47.17
1207;BME280;593;53.184;8.216;2023-04-06T12:05:01;101261.13;;;12.43;46.66
1207;BME280;593;53.184;8.216;2023-04-06T12:07:27;101249.09;;;12.49;44.76
1207;BME280;593;53.184;8.216;2023-04-06T12:09:53;101256.44;;;12.54;45.54
1207;BME280;593;53.184;8.216;2023-04-06T12:12:18;101246.34;;;12.54;43.83
1207;BME280;593;53.184;8.216;2023-04-06T12:14:44;101250.69;;;12.55;43.30
1207;BME280;593;53.184;8.216;2023-04-06T12:17:09;101236.81;;;12.52;42.95
1207;BME280;593;53.184;8.216;2023-04-06T12:19:34;101240.91;;;12.54;44.63
1207;BME280;593;53.184;8.216;2023-04-06T12:22:00;101236.50;;;12.58;46.43
1207;BME280;593;53.184;8.216;2023-04-06T12:24:25;101246.81;;;12.66;44.46
1207;BME280;593;53.184;8.216;2023-04-06T12:26:51;101243.00;;;12.67;45.92
1207;BME280;593;53.184;8.216;2023-04-06T12:29:16;101231.81;;;12.69;49.88
1207;BME280;593;53.184;8.216;2023-04-06T12:31:41;101230.34;;;12.81;49.62
1207;BME280;593;53.184;8.216;2023-04-06T12:34:09;101227.84;;;12.90;47.43
1207;BME280;593;53.184;8.216;2023-04-06T12:36:37;101234.84;;;13.01;48.98
1207;BME280;593;53.184;8.216;2023-04-06T12:39:02;101235.06;;;13.15;44.63
1207;BME280;593;53.184;8.216;2023-04-06T12:41:28;101235.56;;;13.22;47.49
1207;BME280;593;53.184;8.216;2023-04-06T12:43:54;101235.41;;;13.37;48.54
1207;BME280;593;53.184;8.216;2023-04-06T12:46:20;101231.22;;;13.49;49.80
1207;BME280;593;53.184;8.216;2023-04-06T12:48:45;101233.84;;;13.60;49.72
1207;BME280;593;53.184;8.216;2023-04-06T12:51:11;101230.72;;;13.71;49.46
1207;BME280;593;53.184;8.216;2023-04-06T12:53:37;101221.31;;;13.82;49.54
1207;BME280;593;53.184;8.216;2023-04-06T12:56:11;101236.47;;;13.93;47.35
1207;BME280;593;53.184;8.216;2023-04-06T12:58:37;101225.72;;;14.02;48.35
1207;BME280;593;53.184;8.216;2023-04-06T13:01:06;101223.44;;;14.09;48.61
1207;BME280;593;53.184;8.216;2023-04-06T13:03:32;101219.56;;;14.15;46.38
1207;BME280;593;53.184;8.216;2023-04-06T13:05:59;101197.56;;;14.01;45.43
1207;BME280;593;53.184;8.216;2023-04-06T13:08:25;101218.69;;;14.20;48.02
1207;BME280;593;53.184;8.216;2023-04-06T13:10:51;101212.25;;;14.29;45.69
1207;BME280;593;53.184;8.216;2023-04-06T13:13:28;101211.63;;;14.37;47.60
1207;BME280;593;53.184;8.216;2023-04-06T13:15:55;101210.03;;;14.55;48.30
1207;BME280;593;53.184;8.216;2023-04-06T13:18:21;101205.81;;;14.62;48.29
1207;BME280;593;53.184;8.216;2023-04-06T13:20:48;101198.84;;;14.70;46.99
1207;BME280;593;53.184;8.216;2023-04-06T13:23:13;101199.06;;;14.73;46.14
1207;BME280;593;53.184;8.216;2023-04-06T13:25:39;101195.16;;;14.80;41.03
1207;BME280;593;53.184;8.216;2023-04-06T13:28:05;101200.13;;;14.77;43.92
1207;BME280;593;53.184;8.216;2023-04-06T13:30:30;101191.06;;;14.77;44.23